sensor_id;sensor_type;location;lat;lon;timestamp;P1;durP1;ratioP1;P2;durP2;ratioP2
74229;SDS011;62589;12.568;99.958;2023-03-08T00:01:17;62.63;;;44.33;;
74229;SDS011;62589;12.568;99.958;2023-03-08T00:03:55;64.10;;;44.03;;
74229;SDS011;62589;12.568;99.958;2023-03-08T00:06:23;56.30;;;42.50;;
74229;SDS011;62589;12.568;99.958;2023-03-08T00:08:55;64.15;;;45.10;;
74229;SDS011;62589;12.568;99.958;2023-03-08T00:11:26;71.88;;;48.80;;
74229;SDS011;62589;12.568;99.958;2023-03-08T00:13:54;73.05;;;48.50;;
74229;SDS011;62589;12.568;99.958;2023-03-08T00:16:23;64.82;;;46.63;;
74229;SDS011;62589;12.568;99.958;2023-03-08T00:18:50;63.00;;;44.63;;
74229;SDS011;62589;12.568;99.958;2023-03-08T00:21:18;65.00;;;45.28;;
74229;SDS011;62589;12.568;99.958;2023-03-08T00:23:44;62.45;;;46.75;;
74229;SDS011;62589;12.568;99.958;2023-03-08T00:26:12;65.95;;;46.03;;
74229;SDS011;62589;12.568;99.958;2023-03-08T00:28:39;61.85;;;45.45;;
74229;SDS011;62589;12.568;99.958;2023-03-08T00:31:07;66.90;;;46.30;;
74229;SDS011;62589;12.568;99.958;2023-03-08T00:33:36;61.83;;;43.67;;
74229;SDS011;62589;12.568;99.958;2023-03-08T00:36:04;59.90;;;43.42;;
74229;SDS011;62589;12.568;99.958;2023-03-08T00:38:34;67.68;;;45.88;;
74229;SDS011;62589;12.568;99.958;2023-03-08T00:41:02;66.63;;;47.30;;
74229;SDS011;62589;12.568;99.958;2023-03-08T00:43:29;64.50;;;46.25;;
74229;SDS011;62589;12.568;99.958;2023-03-08T00:45:56;71.40;;;47.67;;
74229;SDS011;62589;12.568;99.958;2023-03-08T00:48:23;65.47;;;44.88;;
74229;SDS011;62589;12.568;99.958;2023-03-08T00:50:50;60.65;;;42.60;;
74229;SDS011;62589;12.568;99.958;2023-03-08T00:53:18;61.47;;;43.47;;
74229;SDS011;62589;12.568;99.958;2023-03-08T00:55:50;62.35;;;43.30;;
74229;SDS011;62589;12.568;99.958;2023-03-08T00:58:18;58.72;;;43.05;;
74229;SDS011;62589;12.568;99.958;2023-03-08T01:00:46;59.60;;;42.92;;
74229;SDS011;62589;12.568;99.958;2023-03-08T01:03:13;57.97;;;42.85;;
74229;SDS011;62589;12.568;99.958;2023-03-08T01:05:41;63.13;;;42.97;;
74229;SDS011;62589;12.568;99.958;2023-03-08T01:08:09;56.10;;;41.55;;
74229;SDS011;62589;12.568;99.958;2023-03-08T01:10:37;60.90;;;42.25;;
74229;SDS011;62589;12.568;99.958;2023-03-08T01:13:05;60.80;;;43.30;;
74229;SDS011;62589;12.568;99.958;2023-03-08T01:15:36;61.15;;;43.47;;
74229;SDS011;62589;12.568;99.958;2023-03-08T01:18:04;60.22;;;42.80;;
74229;SDS011;62589;12.568;99.958;2023-03-08T01:20:31;58.65;;;42.95;;
74229;SDS011;62589;12.568;99.958;2023-03-08T01:22:58;61.40;;;42.63;;
74229;SDS011;62589;12.568;99.958;2023-03-08T01:25:25;56.20;;;41.10;;
74229;SDS011;62589;12.568;99.958;2023-03-08T01:27:52;57.97;;;40.75;;
74229;SDS011;62589;12.568;99.958;2023-03-08T01:30:19;58.95;;;42.50;;
74229;SDS011;62589;12.568;99.958;2023-03-08T01:32:45;57.55;;;41.92;;
74229;SDS011;62589;12.568;99.958;2023-03-08T01:35:12;57.53;;;42.85;;
74229;SDS011;62589;12.568;99.958;2023-03-08T01:37:40;58.63;;;41.58;;
74229;SDS011;62589;12.568;99.958;2023-03-08T01:40:10;60.80;;;43.08;;
74229;SDS011;62589;12.568;99.958;2023-03-08T01:42:43;59.53;;;42.08;;
74229;SDS011;62589;12.568;99.958;2023-03-08T01:48:00;61.80;;;44.45;;
74229;SDS011;62589;12.568;99.958;2023-03-08T01:50:27;64.40;;;43.97;;
74229;SDS011;62589;12.568;99.958;2023-03-08T01:52:57;59.53;;;43.00;;
74229;SDS011;62589;12.568;99.958;2023-03-08T01:55:23;67.70;;;44.30;;
74229;SDS011;62589;12.568;99.958;2023-03-08T01:57:53;60.05;;;42.03;;
74229;SDS011;62589;12.568;99.958;2023-03-08T02:00:22;60.33;;;42.10;;
74229;SDS011;62589;12.568;99.958;2023-03-08T02:02:59;57.40;;;42.03;;
74229;SDS011;62589;12.568;99.958;2023-03-08T02:05:36;58.63;;;40.90;;
74229;SDS011;62589;12.568;99.958;2023-03-08T02:08:09;54.47;;;40.55;;
74229;SDS011;62589;12.568;99.958;2023-03-08T02:10:35;62.17;;;43.10;;
74229;SDS011;62589;12.568;99.958;2023-03-08T02:13:04;59.55;;;40.25;;
74229;SDS011;62589;12.568;99.958;2023-03-08T02:15:33;56.22;;;41.35;;
74229;SDS011;62589;12.568;99.958;2023-03-08T02:18:01;58.38;;;41.90;;
74229;SDS011;62589;12.568;99.958;2023-03-08T02:20:33;56.85;;;41.05;;
74229;SDS011;62589;12.568;99.958;2023-03-08T02:23:14;54.08;;;38.72;;
74229;SDS011;62589;12.568;99.958;2023-03-08T02:25:50;55.70;;;39.95;;
74229;SDS011;62589;12.568;99.958;2023-03-08T02:28:31;52.90;;;39.35;;
74229;SDS011;62589;12.568;99.958;2023-03-08T02:31:00;52.65;;;38.15;;
74229;SDS011;62589;12.568;99.958;2023-03-08T02:33:29;51.08;;;37.63;;
74229;SDS011;62589;12.568;99.958;2023-03-08T02:35:59;51.10;;;37.72;;
74229;SDS011;62589;12.568;99.958;2023-03-08T02:38:27;51.28;;;35.70;;
74229;SDS011;62589;12.568;99.958;2023-03-08T02:40:54;43.70;;;31.65;;
74229;SDS011;62589;12.568;99.958;2023-03-08T02:43:22;38.97;;;29.20;;
74229;SDS011;62589;12.568;99.958;2023-03-08T02:45:49;42.70;;;33.20;;
74229;SDS011;62589;12.568;99.958;2023-03-08T02:48:16;43.55;;;32.70;;
74229;SDS011;62589;12.568;99.958;2023-03-08T02:50:44;40.03;;;29.70;;
74229;SDS011;62589;12.568;99.958;2023-03-08T02:53:13;38.75;;;28.70;;
74229;SDS011;62589;12.568;99.958;2023-03-08T02:55:40;40.67;;;29.35;;
74229;SDS011;62589;12.568;99.958;2023-03-08T02:58:08;42.10;;;31.23;;
74229;SDS011;62589;12.568;99.958;2023-03-08T03:00:35;45.88;;;32.83;;
74229;SDS011;62589;12.568;99.958;2023-03-08T03:03:03;50.90;;;33.58;;
74229;SDS011;62589;12.568;99.958;2023-03-08T03:05:29;44.35;;;31.25;;
74229;SDS011;62589;12.568;99.958;2023-03-08T03:07:56;40.22;;;30.13;;
74229;SDS011;62589;12.568;99.958;2023-03-08T03:10:24;37.70;;;28.77;;
74229;SDS011;62589;12.568;99.958;2023-03-08T03:12:53;39.50;;;28.67;;
74229;SDS011;62589;12.568;99.958;2023-03-08T03:15:19;40.08;;;29.27;;
74229;SDS011;62589;12.568;99.958;2023-03-08T03:17:46;38.58;;;28.60;;
74229;SDS011;62589;12.568;99.958;2023-03-08T03:20:15;38.25;;;28.95;;
74229;SDS011;62589;12.568;99.958;2023-03-08T03:22:43;39.85;;;29.08;;
74229;SDS011;62589;12.568;99.958;2023-03-08T03:25:11;36.55;;;28.67;;
74229;SDS011;62589;12.568;99.958;2023-03-08T03:27:38;40.72;;;30.33;;
74229;SDS011;62589;12.568;99.958;2023-03-08T03:30:05;38.83;;;28.35;;
74229;SDS011;62589;12.568;99.958;2023-03-08T03:32:33;33.20;;;26.48;;
74229;SDS011;62589;12.568;99.958;2023-03-08T03:35:00;36.00;;;27.05;;
74229;SDS011;62589;12.568;99.958;2023-03-08T03:37:27;39.28;;;27.45;;
74229;SDS011;62589;12.568;99.958;2023-03-08T03:39:55;32.85;;;25.58;;
74229;SDS011;62589;12.568;99.958;2023-03-08T03:42:23;34.95;;;26.92;;
74229;SDS011;62589;12.568;99.958;2023-03-08T03:44:49;33.67;;;26.23;;
74229;SDS011;62589;12.568;99.958;2023-03-08T03:47:17;35.35;;;25.75;;
74229;SDS011;62589;12.568;99.958;2023-03-08T03:49:44;33.20;;;25.20;;
74229;SDS011;62589;12.568;99.958;2023-03-08T03:52:11;35.50;;;26.25;;
74229;SDS011;62589;12.568;99.958;2023-03-08T03:54:38;33.92;;;27.20;;
74229;SDS011;62589;12.568;99.958;2023-03-08T03:57:04;34.95;;;24.23;;
74229;SDS011;62589;12.568;99.958;2023-03-08T03:59:32;31.08;;;25.23;;
74229;SDS011;62589;12.568;99.958;2023-03-08T04:01:58;32.25;;;23.88;;
74229;SDS011;62589;12.568;99.958;2023-03-08T04:04:25;42.38;;;29.13;;
74229;SDS011;62589;12.568;99.958;2023-03-08T04:06:51;37.00;;;27.88;;
74229;SDS011;62589;12.568;99.958;2023-03-08T04:09:18;41.40;;;28.75;;
74229;SDS011;62589;12.568;99.958;2023-03-08T04:11:45;44.50;;;27.65;;
74229;SDS011;62589;12.568;99.958;2023-03-08T04:14:11;35.65;;;26.67;;
74229;SDS011;62589;12.568;99.958;2023-03-08T04:16:38;36.85;;;25.55;;
74229;SDS011;62589;12.568;99.958;2023-03-08T04:19:07;38.03;;;26.92;;
74229;SDS011;62589;12.568;99.958;2023-03-08T04:21:36;31.15;;;24.48;;
74229;SDS011;62589;12.568;99.958;2023-03-08T04:24:02;34.92;;;26.83;;
74229;SDS011;62589;12.568;99.958;2023-03-08T04:26:30;34.83;;;26.70;;
74229;SDS011;62589;12.568;99.958;2023-03-08T04:29:00;37.53;;;25.60;;
74229;SDS011;62589;12.568;99.958;2023-03-08T04:31:33;36.40;;;25.38;;
74229;SDS011;62589;12.568;99.958;2023-03-08T04:34:01;36.03;;;25.42;;
74229;SDS011;62589;12.568;99.958;2023-03-08T04:36:30;34.13;;;25.92;;
74229;SDS011;62589;12.568;99.958;2023-03-08T04:38:59;34.22;;;25.40;;
74229;SDS011;62589;12.568;99.958;2023-03-08T04:41:25;32.63;;;23.95;;
74229;SDS011;62589;12.568;99.958;2023-03-08T04:43:54;34.67;;;24.35;;
74229;SDS011;62589;12.568;99.958;2023-03-08T04:46:25;34.05;;;24.60;;
74229;SDS011;62589;12.568;99.958;2023-03-08T04:48:52;34.35;;;25.08;;
74229;SDS011;62589;12.568;99.958;2023-03-08T04:51:21;36.00;;;23.98;;
74229;SDS011;62589;12.568;99.958;2023-03-08T04:53:48;35.97;;;24.10;;
74229;SDS011;62589;12.568;99.958;2023-03-08T04:56:18;37.92;;;24.88;;
74229;SDS011;62589;12.568;99.958;2023-03-08T04:58:45;37.28;;;23.98;;
74229;SDS011;62589;12.568;99.958;2023-03-08T05:01:14;34.25;;;24.48;;
74229;SDS011;62589;12.568;99.958;2023-03-08T05:03:46;32.58;;;24.10;;
74229;SDS011;62589;12.568;99.958;2023-03-08T05:06:17;33.92;;;23.83;;
74229;SDS011;62589;12.568;99.958;2023-03-08T05:08:46;35.22;;;24.73;;
74229;SDS011;62589;12.568;99.958;2023-03-08T05:11:18;37.33;;;24.60;;
74229;SDS011;62589;12.568;99.958;2023-03-08T05:13:46;36.80;;;24.05;;
74229;SDS011;62589;12.568;99.958;2023-03-08T05:16:13;29.10;;;22.85;;
74229;SDS011;62589;12.568;99.958;2023-03-08T05:18:41;39.33;;;23.92;;
74229;SDS011;62589;12.568;99.958;2023-03-08T05:21:13;33.70;;;23.35;;
74229;SDS011;62589;12.568;99.958;2023-03-08T05:23:41;34.65;;;23.02;;
74229;SDS011;62589;12.568;99.958;2023-03-08T05:26:09;38.90;;;23.80;;
74229;SDS011;62589;12.568;99.958;2023-03-08T05:28:38;39.22;;;24.73;;
74229;SDS011;62589;12.568;99.958;2023-03-08T05:31:13;34.22;;;23.80;;
74229;SDS011;62589;12.568;99.958;2023-03-08T05:33:41;31.05;;;23.17;;
74229;SDS011;62589;12.568;99.958;2023-03-08T05:36:11;33.00;;;23.63;;
74229;SDS011;62589;12.568;99.958;2023-03-08T05:38:39;30.58;;;22.23;;
74229;SDS011;62589;12.568;99.958;2023-03-08T05:41:06;31.50;;;24.17;;
74229;SDS011;62589;12.568;99.958;2023-03-08T05:43:34;32.22;;;23.35;;
74229;SDS011;62589;12.568;99.958;2023-03-08T05:46:02;30.17;;;22.90;;
74229;SDS011;62589;12.568;99.958;2023-03-08T05:48:32;32.45;;;24.20;;
74229;SDS011;62589;12.568;99.958;2023-03-08T05:51:04;33.58;;;24.55;;
74229;SDS011;62589;12.568;99.958;2023-03-08T05:53:34;29.13;;;22.58;;
74229;SDS011;62589;12.568;99.958;2023-03-08T05:56:14;32.70;;;24.25;;
74229;SDS011;62589;12.568;99.958;2023-03-08T05:58:43;30.05;;;22.73;;
74229;SDS011;62589;12.568;99.958;2023-03-08T06:01:11;34.03;;;23.63;;
74229;SDS011;62589;12.568;99.958;2023-03-08T06:03:44;33.83;;;23.55;;
74229;SDS011;62589;12.568;99.958;2023-03-08T06:06:11;32.35;;;22.98;;
74229;SDS011;62589;12.568;99.958;2023-03-08T06:08:38;31.77;;;22.95;;
74229;SDS011;62589;12.568;99.958;2023-03-08T06:11:05;29.45;;;22.52;;
74229;SDS011;62589;12.568;99.958;2023-03-08T06:13:34;30.63;;;23.23;;
74229;SDS011;62589;12.568;99.958;2023-03-08T06:16:01;28.60;;;22.90;;
74229;SDS011;62589;12.568;99.958;2023-03-08T06:18:29;30.05;;;21.58;;
74229;SDS011;62589;12.568;99.958;2023-03-08T06:21:02;32.40;;;23.17;;
74229;SDS011;62589;12.568;99.958;2023-03-08T06:23:30;32.30;;;23.67;;
74229;SDS011;62589;12.568;99.958;2023-03-08T06:25:59;30.95;;;22.92;;
74229;SDS011;62589;12.568;99.958;2023-03-08T06:28:27;27.73;;;21.85;;
74229;SDS011;62589;12.568;99.958;2023-03-08T06:30:54;28.60;;;23.20;;
74229;SDS011;62589;12.568;99.958;2023-03-08T06:33:21;30.63;;;22.30;;
74229;SDS011;62589;12.568;99.958;2023-03-08T06:38:29;29.05;;;22.48;;
74229;SDS011;62589;12.568;99.958;2023-03-08T06:40:59;29.95;;;22.77;;
74229;SDS011;62589;12.568;99.958;2023-03-08T06:43:27;26.80;;;21.58;;
74229;SDS011;62589;12.568;99.958;2023-03-08T06:45:55;29.30;;;22.58;;
74229;SDS011;62589;12.568;99.958;2023-03-08T06:48:23;31.98;;;22.20;;
74229;SDS011;62589;12.568;99.958;2023-03-08T06:50:51;27.25;;;20.90;;
74229;SDS011;62589;12.568;99.958;2023-03-08T06:53:19;30.33;;;21.30;;
74229;SDS011;62589;12.568;99.958;2023-03-08T06:55:46;28.77;;;21.30;;
74229;SDS011;62589;12.568;99.958;2023-03-08T06:58:12;33.83;;;25.02;;
74229;SDS011;62589;12.568;99.958;2023-03-08T07:00:39;35.88;;;24.00;;
74229;SDS011;62589;12.568;99.958;2023-03-08T07:03:05;35.85;;;25.02;;
74229;SDS011;62589;12.568;99.958;2023-03-08T07:05:32;31.83;;;25.13;;
74229;SDS011;62589;12.568;99.958;2023-03-08T07:07:58;33.35;;;25.27;;
74229;SDS011;62589;12.568;99.958;2023-03-08T07:10:26;31.05;;;23.60;;
74229;SDS011;62589;12.568;99.958;2023-03-08T07:12:53;31.80;;;23.17;;
74229;SDS011;62589;12.568;99.958;2023-03-08T07:15:23;30.67;;;22.83;;
74229;SDS011;62589;12.568;99.958;2023-03-08T07:17:52;34.58;;;24.08;;
74229;SDS011;62589;12.568;99.958;2023-03-08T07:20:24;29.65;;;23.02;;
74229;SDS011;62589;12.568;99.958;2023-03-08T07:22:55;32.45;;;23.42;;
74229;SDS011;62589;12.568;99.958;2023-03-08T07:25:26;28.30;;;22.98;;
74229;SDS011;62589;12.568;99.958;2023-03-08T07:27:57;42.10;;;24.25;;
74229;SDS011;62589;12.568;99.958;2023-03-08T07:30:46;29.00;;;23.90;;
74229;SDS011;62589;12.568;99.958;2023-03-08T07:33:15;30.35;;;23.88;;
74229;SDS011;62589;12.568;99.958;2023-03-08T07:35:43;31.92;;;24.30;;
74229;SDS011;62589;12.568;99.958;2023-03-08T07:38:11;35.05;;;25.10;;
74229;SDS011;62589;12.568;99.958;2023-03-08T07:40:37;29.63;;;23.58;;
74229;SDS011;62589;12.568;99.958;2023-03-08T07:43:04;29.10;;;24.85;;
74229;SDS011;62589;12.568;99.958;2023-03-08T07:45:32;35.65;;;25.90;;
74229;SDS011;62589;12.568;99.958;2023-03-08T07:47:59;32.70;;;24.85;;
74229;SDS011;62589;12.568;99.958;2023-03-08T07:50:27;30.77;;;24.25;;
74229;SDS011;62589;12.568;99.958;2023-03-08T07:52:57;34.83;;;25.05;;
74229;SDS011;62589;12.568;99.958;2023-03-08T07:55:28;29.83;;;23.48;;
74229;SDS011;62589;12.568;99.958;2023-03-08T07:57:54;30.90;;;24.88;;
74229;SDS011;62589;12.568;99.958;2023-03-08T08:00:21;32.63;;;25.05;;
74229;SDS011;62589;12.568;99.958;2023-03-08T08:02:48;36.58;;;25.98;;
74229;SDS011;62589;12.568;99.958;2023-03-08T08:05:18;41.67;;;28.13;;
74229;SDS011;62589;12.568;99.958;2023-03-08T08:07:47;41.45;;;28.52;;
74229;SDS011;62589;12.568;99.958;2023-03-08T08:10:14;36.90;;;27.25;;
74229;SDS011;62589;12.568;99.958;2023-03-08T08:12:41;37.53;;;27.30;;
74229;SDS011;62589;12.568;99.958;2023-03-08T08:15:08;36.80;;;27.58;;
74229;SDS011;62589;12.568;99.958;2023-03-08T08:17:36;43.15;;;30.42;;
74229;SDS011;62589;12.568;99.958;2023-03-08T08:20:04;39.30;;;28.85;;
74229;SDS011;62589;12.568;99.958;2023-03-08T08:22:34;37.95;;;27.63;;
74229;SDS011;62589;12.568;99.958;2023-03-08T08:25:03;38.40;;;28.30;;
74229;SDS011;62589;12.568;99.958;2023-03-08T08:27:32;36.22;;;27.13;;
74229;SDS011;62589;12.568;99.958;2023-03-08T08:29:59;37.33;;;26.08;;
74229;SDS011;62589;12.568;99.958;2023-03-08T08:32:26;36.03;;;26.85;;
74229;SDS011;62589;12.568;99.958;2023-03-08T08:34:53;40.55;;;26.50;;
74229;SDS011;62589;12.568;99.958;2023-03-08T08:37:20;36.05;;;27.10;;
74229;SDS011;62589;12.568;99.958;2023-03-08T08:39:47;39.58;;;28.70;;
74229;SDS011;62589;12.568;99.958;2023-03-08T08:42:13;42.50;;;28.35;;
74229;SDS011;62589;12.568;99.958;2023-03-08T08:44:40;37.70;;;26.92;;
74229;SDS011;62589;12.568;99.958;2023-03-08T08:47:06;35.70;;;27.42;;
74229;SDS011;62589;12.568;99.958;2023-03-08T08:49:33;37.65;;;26.52;;
74229;SDS011;62589;12.568;99.958;2023-03-08T08:52:01;38.30;;;26.98;;
74229;SDS011;62589;12.568;99.958;2023-03-08T08:54:27;43.22;;;28.55;;
74229;SDS011;62589;12.568;99.958;2023-03-08T08:56:58;35.47;;;26.08;;
74229;SDS011;62589;12.568;99.958;2023-03-08T08:59:26;38.53;;;27.25;;
74229;SDS011;62589;12.568;99.958;2023-03-08T09:01:54;41.72;;;27.75;;
74229;SDS011;62589;12.568;99.958;2023-03-08T09:04:22;43.17;;;27.88;;
74229;SDS011;62589;12.568;99.958;2023-03-08T09:06:50;37.25;;;25.98;;
74229;SDS011;62589;12.568;99.958;2023-03-08T09:09:19;37.95;;;27.27;;
74229;SDS011;62589;12.568;99.958;2023-03-08T09:11:47;40.22;;;29.27;;
74229;SDS011;62589;12.568;99.958;2023-03-08T09:14:14;34.88;;;26.38;;
74229;SDS011;62589;12.568;99.958;2023-03-08T09:16:41;37.40;;;27.30;;
74229;SDS011;62589;12.568;99.958;2023-03-08T09:19:07;39.60;;;27.13;;
74229;SDS011;62589;12.568;99.958;2023-03-08T09:21:34;38.53;;;27.80;;
74229;SDS011;62589;12.568;99.958;2023-03-08T09:24:02;37.00;;;27.98;;
74229;SDS011;62589;12.568;99.958;2023-03-08T09:26:32;43.05;;;28.02;;
74229;SDS011;62589;12.568;99.958;2023-03-08T09:29:00;38.92;;;28.02;;
74229;SDS011;62589;12.568;99.958;2023-03-08T09:31:30;39.75;;;26.58;;
74229;SDS011;62589;12.568;99.958;2023-03-08T09:33:59;38.10;;;26.92;;
74229;SDS011;62589;12.568;99.958;2023-03-08T09:36:29;40.03;;;27.48;;
74229;SDS011;62589;12.568;99.958;2023-03-08T09:38:55;41.38;;;28.30;;
74229;SDS011;62589;12.568;99.958;2023-03-08T09:47:24;38.50;;;28.73;;
74229;SDS011;62589;12.568;99.958;2023-03-08T09:56:23;38.60;;;28.05;;
74229;SDS011;62589;12.568;99.958;2023-03-08T09:59:11;43.25;;;30.75;;
74229;SDS011;62589;12.568;99.958;2023-03-08T10:04:59;40.03;;;28.58;;
74229;SDS011;62589;12.568;99.958;2023-03-08T10:07:44;38.25;;;30.25;;
74229;SDS011;62589;12.568;99.958;2023-03-08T10:10:34;42.80;;;28.63;;
74229;SDS011;62589;12.568;99.958;2023-03-08T10:16:15;42.58;;;29.23;;
74229;SDS011;62589;12.568;99.958;2023-03-08T10:21:43;40.63;;;27.50;;
74229;SDS011;62589;12.568;99.958;2023-03-08T10:24:15;41.85;;;28.23;;
74229;SDS011;62589;12.568;99.958;2023-03-08T10:26:59;37.63;;;26.42;;
74229;SDS011;62589;12.568;99.958;2023-03-08T10:29:38;36.65;;;26.90;;
74229;SDS011;62589;12.568;99.958;2023-03-08T10:32:12;37.65;;;27.85;;
74229;SDS011;62589;12.568;99.958;2023-03-08T10:34:39;36.38;;;27.30;;
74229;SDS011;62589;12.568;99.958;2023-03-08T10:37:05;36.20;;;28.25;;
74229;SDS011;62589;12.568;99.958;2023-03-08T10:39:46;37.08;;;27.42;;
74229;SDS011;62589;12.568;99.958;2023-03-08T10:42:23;37.13;;;27.95;;
74229;SDS011;62589;12.568;99.958;2023-03-08T10:44:56;41.00;;;28.50;;
74229;SDS011;62589;12.568;99.958;2023-03-08T10:47:32;36.25;;;27.00;;
74229;SDS011;62589;12.568;99.958;2023-03-08T10:52:49;39.03;;;28.58;;
74229;SDS011;62589;12.568;99.958;2023-03-08T10:55:17;37.97;;;28.20;;
74229;SDS011;62589;12.568;99.958;2023-03-08T10:57:54;40.45;;;28.35;;
74229;SDS011;62589;12.568;99.958;2023-03-08T11:00:35;41.33;;;29.15;;
74229;SDS011;62589;12.568;99.958;2023-03-08T11:03:14;42.53;;;30.10;;
74229;SDS011;62589;12.568;99.958;2023-03-08T11:08:37;39.50;;;29.48;;
74229;SDS011;62589;12.568;99.958;2023-03-08T11:11:10;44.40;;;28.67;;
74229;SDS011;62589;12.568;99.958;2023-03-08T11:13:39;44.75;;;30.30;;
74229;SDS011;62589;12.568;99.958;2023-03-08T11:19:21;39.17;;;29.05;;
74229;SDS011;62589;12.568;99.958;2023-03-08T11:22:14;36.70;;;27.20;;
74229;SDS011;62589;12.568;99.958;2023-03-08T11:25:02;44.47;;;29.95;;
74229;SDS011;62589;12.568;99.958;2023-03-08T11:30:57;44.45;;;30.48;;
74229;SDS011;62589;12.568;99.958;2023-03-08T11:39:43;42.88;;;31.73;;
74229;SDS011;62589;12.568;99.958;2023-03-08T11:48:05;47.22;;;30.67;;
74229;SDS011;62589;12.568;99.958;2023-03-08T11:50:52;43.63;;;32.13;;
74229;SDS011;62589;12.568;99.958;2023-03-08T11:53:44;42.15;;;31.35;;
74229;SDS011;62589;12.568;99.958;2023-03-08T11:59:31;43.25;;;31.42;;
74229;SDS011;62589;12.568;99.958;2023-03-08T12:02:10;43.00;;;29.75;;
74229;SDS011;62589;12.568;99.958;2023-03-08T12:04:54;38.42;;;29.00;;
74229;SDS011;62589;12.568;99.958;2023-03-08T12:10:24;42.03;;;30.02;;
74229;SDS011;62589;12.568;99.958;2023-03-08T12:15:52;44.58;;;30.00;;
74229;SDS011;62589;12.568;99.958;2023-03-08T12:21:40;40.38;;;30.17;;
74229;SDS011;62589;12.568;99.958;2023-03-08T12:24:36;44.53;;;30.67;;
74229;SDS011;62589;12.568;99.958;2023-03-08T12:32:45;36.20;;;29.23;;
74229;SDS011;62589;12.568;99.958;2023-03-08T12:35:25;38.87;;;28.67;;
74229;SDS011;62589;12.568;99.958;2023-03-08T12:38:05;37.00;;;29.33;;
74229;SDS011;62589;12.568;99.958;2023-03-08T12:40:54;38.97;;;29.30;;
74229;SDS011;62589;12.568;99.958;2023-03-08T12:43:29;37.03;;;28.08;;
74229;SDS011;62589;12.568;99.958;2023-03-08T12:46:08;37.33;;;28.80;;
74229;SDS011;62589;12.568;99.958;2023-03-08T12:51:23;40.40;;;27.98;;
74229;SDS011;62589;12.568;99.958;2023-03-08T12:54:01;38.63;;;28.05;;
74229;SDS011;62589;12.568;99.958;2023-03-08T12:56:31;42.47;;;28.90;;
74229;SDS011;62589;12.568;99.958;2023-03-08T13:02:02;41.45;;;28.60;;
74229;SDS011;62589;12.568;99.958;2023-03-08T13:04:40;37.15;;;29.67;;
74229;SDS011;62589;12.568;99.958;2023-03-08T13:09:54;44.00;;;32.53;;
74229;SDS011;62589;12.568;99.958;2023-03-08T13:12:36;43.20;;;31.25;;
74229;SDS011;62589;12.568;99.958;2023-03-08T13:15:23;45.72;;;33.42;;
74229;SDS011;62589;12.568;99.958;2023-03-08T13:18:00;48.20;;;34.80;;
74229;SDS011;62589;12.568;99.958;2023-03-08T13:23:35;48.30;;;34.10;;
74229;SDS011;62589;12.568;99.958;2023-03-08T13:26:26;50.60;;;35.65;;
74229;SDS011;62589;12.568;99.958;2023-03-08T13:29:10;52.72;;;36.20;;
74229;SDS011;62589;12.568;99.958;2023-03-08T13:31:43;52.22;;;35.67;;
74229;SDS011;62589;12.568;99.958;2023-03-08T13:36:51;50.38;;;36.30;;
74229;SDS011;62589;12.568;99.958;2023-03-08T13:39:19;48.15;;;33.25;;
74229;SDS011;62589;12.568;99.958;2023-03-08T13:41:48;44.05;;;32.42;;
74229;SDS011;62589;12.568;99.958;2023-03-08T13:47:01;42.95;;;31.63;;
74229;SDS011;62589;12.568;99.958;2023-03-08T13:49:39;42.90;;;31.00;;
74229;SDS011;62589;12.568;99.958;2023-03-08T13:52:14;44.07;;;31.23;;
74229;SDS011;62589;12.568;99.958;2023-03-08T13:54:45;41.95;;;31.27;;
74229;SDS011;62589;12.568;99.958;2023-03-08T13:57:22;44.55;;;31.67;;
74229;SDS011;62589;12.568;99.958;2023-03-08T13:59:55;46.47;;;31.33;;
74229;SDS011;62589;12.568;99.958;2023-03-08T14:02:24;45.85;;;29.58;;
74229;SDS011;62589;12.568;99.958;2023-03-08T14:04:53;43.53;;;30.52;;
74229;SDS011;62589;12.568;99.958;2023-03-08T14:07:27;48.60;;;32.35;;
74229;SDS011;62589;12.568;99.958;2023-03-08T14:09:56;42.97;;;30.42;;
74229;SDS011;62589;12.568;99.958;2023-03-08T14:12:25;48.83;;;31.52;;
74229;SDS011;62589;12.568;99.958;2023-03-08T14:15:02;45.28;;;31.40;;
74229;SDS011;62589;12.568;99.958;2023-03-08T14:17:33;44.80;;;30.77;;
74229;SDS011;62589;12.568;99.958;2023-03-08T14:20:11;42.95;;;29.77;;
74229;SDS011;62589;12.568;99.958;2023-03-08T14:22:45;49.22;;;29.70;;
74229;SDS011;62589;12.568;99.958;2023-03-08T14:25:21;43.97;;;29.95;;
74229;SDS011;62589;12.568;99.958;2023-03-08T14:27:56;43.53;;;30.00;;
74229;SDS011;62589;12.568;99.958;2023-03-08T14:30:25;39.53;;;29.10;;
74229;SDS011;62589;12.568;99.958;2023-03-08T14:35:51;45.33;;;29.75;;
74229;SDS011;62589;12.568;99.958;2023-03-08T14:38:27;45.35;;;31.42;;
74229;SDS011;62589;12.568;99.958;2023-03-08T14:40:59;44.80;;;30.40;;
74229;SDS011;62589;12.568;99.958;2023-03-08T14:43:30;42.72;;;30.15;;
74229;SDS011;62589;12.568;99.958;2023-03-08T14:46:05;42.53;;;29.95;;
74229;SDS011;62589;12.568;99.958;2023-03-08T14:48:34;43.70;;;29.75;;
74229;SDS011;62589;12.568;99.958;2023-03-08T14:51:23;45.45;;;29.20;;
74229;SDS011;62589;12.568;99.958;2023-03-08T14:54:01;48.22;;;30.90;;
74229;SDS011;62589;12.568;99.958;2023-03-08T14:56:31;40.13;;;28.05;;
74229;SDS011;62589;12.568;99.958;2023-03-08T14:59:02;45.13;;;29.98;;
74229;SDS011;62589;12.568;99.958;2023-03-08T15:01:34;42.28;;;28.38;;
74229;SDS011;62589;12.568;99.958;2023-03-08T15:04:05;46.15;;;30.88;;
74229;SDS011;62589;12.568;99.958;2023-03-08T15:06:41;46.90;;;29.75;;
74229;SDS011;62589;12.568;99.958;2023-03-08T15:09:11;40.92;;;29.02;;
74229;SDS011;62589;12.568;99.958;2023-03-08T15:11:42;40.63;;;28.80;;
74229;SDS011;62589;12.568;99.958;2023-03-08T15:14:11;40.13;;;28.50;;
74229;SDS011;62589;12.568;99.958;2023-03-08T15:16:39;39.42;;;27.63;;
74229;SDS011;62589;12.568;99.958;2023-03-08T15:19:05;38.13;;;26.60;;
74229;SDS011;62589;12.568;99.958;2023-03-08T15:21:33;36.70;;;27.10;;
74229;SDS011;62589;12.568;99.958;2023-03-08T15:24:03;40.65;;;27.95;;
74229;SDS011;62589;12.568;99.958;2023-03-08T15:26:31;38.25;;;27.80;;
74229;SDS011;62589;12.568;99.958;2023-03-08T15:29:00;35.15;;;25.63;;
74229;SDS011;62589;12.568;99.958;2023-03-08T15:31:29;35.20;;;26.30;;
74229;SDS011;62589;12.568;99.958;2023-03-08T15:33:56;39.20;;;27.95;;
74229;SDS011;62589;12.568;99.958;2023-03-08T15:36:24;39.83;;;27.40;;
74229;SDS011;62589;12.568;99.958;2023-03-08T15:41:24;39.60;;;28.55;;
74229;SDS011;62589;12.568;99.958;2023-03-08T15:43:51;35.33;;;26.70;;
74229;SDS011;62589;12.568;99.958;2023-03-08T15:46:19;45.05;;;29.00;;
74229;SDS011;62589;12.568;99.958;2023-03-08T15:48:46;41.50;;;28.75;;
74229;SDS011;62589;12.568;99.958;2023-03-08T15:51:19;37.00;;;26.60;;
74229;SDS011;62589;12.568;99.958;2023-03-08T15:53:50;42.70;;;26.55;;
74229;SDS011;62589;12.568;99.958;2023-03-08T15:56:17;38.33;;;26.05;;
74229;SDS011;62589;12.568;99.958;2023-03-08T15:58:43;35.88;;;26.13;;